createdAt,value
2022-09-20T00:01:34.357Z,1.10
2022-09-20T00:04:06.182Z,0.82
2022-09-20T00:06:34.768Z,0.90
2022-09-20T00:09:04.071Z,1.20
2022-09-20T00:11:34.411Z,0.98
2022-09-20T00:14:03.553Z,0.88
2022-09-20T00:16:34.097Z,1.10
2022-09-20T00:19:05.226Z,1.17
2022-09-20T00:21:35.929Z,1.12
2022-09-20T00:24:04.113Z,1.35
2022-09-20T00:26:31.901Z,0.98
2022-09-20T00:29:02.517Z,1.10
2022-09-20T00:31:30.183Z,1.17
2022-09-20T00:34:17.981Z,0.88
2022-09-20T00:36:46.106Z,1.08
2022-09-20T00:39:15.974Z,0.90
2022-09-20T00:41:43.936Z,0.98
2022-09-20T00:44:49.024Z,1.05
2022-09-20T00:47:41.913Z,1.05
2022-09-20T00:50:29.799Z,1.00
2022-09-20T00:53:04.880Z,1.10
2022-09-20T00:55:34.465Z,1.12
2022-09-20T00:58:02.829Z,1.10
2022-09-20T01:00:30.723Z,1.20
2022-09-20T01:03:02.425Z,1.10
2022-09-20T01:05:30.320Z,0.85
2022-09-20T01:07:58.616Z,1.50
2022-09-20T01:10:26.601Z,1.10
2022-09-20T01:12:55.303Z,1.33
2022-09-20T01:15:24.502Z,1.40
2022-09-20T01:17:54.259Z,1.17
2022-09-20T01:20:24.130Z,0.93
2022-09-20T01:23:29.497Z,1.05
2022-09-20T01:26:27.840Z,1.05
2022-09-20T01:29:08.206Z,1.20
2022-09-20T01:31:42.746Z,1.17
2022-09-20T01:34:18.986Z,1.17
2022-09-20T01:37:12.894Z,1.20
2022-09-20T01:39:55.691Z,1.20
2022-09-20T01:42:32.867Z,1.30
2022-09-20T01:45:07.003Z,1.10
2022-09-20T01:48:10.490Z,1.20
2022-09-20T01:51:03.593Z,1.58
2022-09-20T01:53:37.084Z,1.37
2022-09-20T01:56:07.733Z,1.30
2022-09-20T01:59:22.696Z,1.05
2022-09-20T02:02:09.133Z,1.50
2022-09-20T02:04:51.816Z,1.00
2022-09-20T02:07:46.450Z,1.00
2022-09-20T02:10:24.214Z,1.20
2022-09-20T02:13:00.227Z,1.10
2022-09-20T02:15:46.220Z,1.20
2022-09-20T02:18:46.267Z,1.30
2022-09-20T02:21:35.161Z,1.30
2022-09-20T02:24:37.684Z,1.20
2022-09-20T02:27:23.961Z,1.30
2022-09-20T02:30:16.525Z,1.55
2022-09-20T02:33:05.514Z,1.12
2022-09-20T02:35:43.222Z,1.30
2022-09-20T02:38:28.960Z,1.10
2022-09-20T02:41:21.292Z,1.35
2022-09-20T02:44:13.314Z,1.33
2022-09-20T02:47:01.306Z,1.20
2022-09-20T02:49:53.390Z,1.50
2022-09-20T02:53:06.169Z,1.27
2022-09-20T02:55:48.175Z,1.67
2022-09-20T02:58:21.750Z,1.23
2022-09-20T03:01:00.779Z,1.30
2022-09-20T03:03:56.257Z,0.93
2022-09-20T03:06:51.733Z,1.65
2022-09-20T03:09:29.285Z,1.45
2022-09-20T03:12:32.659Z,1.52
2022-09-20T03:15:18.570Z,1.83
2022-09-20T03:18:13.940Z,1.40
2022-09-20T03:21:01.394Z,1.40
2022-09-20T03:23:56.822Z,1.33
2022-09-20T03:26:38.519Z,1.70
2022-09-20T03:29:43.378Z,1.40
2022-09-20T03:32:17.898Z,1.50
2022-09-20T03:34:52.931Z,1.48
2022-09-20T03:37:36.308Z,1.40
2022-09-20T03:40:22.410Z,1.60
2022-09-20T03:42:53.653Z,1.37
2022-09-20T03:45:21.206Z,1.62
2022-09-20T03:48:00.921Z,1.42
2022-09-20T03:50:50.958Z,1.20
2022-09-20T03:53:34.985Z,1.73
2022-09-20T03:56:24.211Z,1.25
2022-09-20T03:59:01.557Z,1.10
2022-09-20T04:02:13.933Z,1.00
2022-09-20T04:05:00.023Z,0.98
2022-09-20T04:07:27.552Z,1.23
2022-09-20T04:10:14.820Z,1.40
2022-09-20T04:12:57.106Z,1.15
2022-09-20T04:15:37.365Z,1.37
2022-09-20T04:18:44.660Z,1.15
2022-09-20T04:21:24.826Z,1.40
2022-09-20T04:23:55.495Z,1.52
2022-09-20T04:26:48.427Z,1.62
2022-09-20T04:29:41.859Z,1.80
2022-09-20T04:32:25.532Z,1.70
2022-09-20T04:35:22.591Z,1.62
2022-09-20T04:37:51.979Z,1.77
2022-09-20T04:40:45.549Z,1.70
2022-09-20T04:43:28.068Z,1.50
2022-09-20T04:46:41.148Z,1.35
2022-09-20T04:49:36.434Z,1.87
2022-09-20T04:52:05.238Z,1.73
2022-09-20T04:54:35.960Z,1.67
2022-09-20T04:57:09.626Z,1.75
2022-09-20T05:00:05.293Z,1.95
2022-09-20T05:02:54.367Z,1.92
2022-09-20T05:05:45.503Z,1.20
2022-09-20T05:08:49.996Z,1.60
2022-09-20T05:11:35.582Z,1.55
2022-09-20T05:14:25.241Z,1.67
2022-09-20T05:17:17.128Z,1.35
2022-09-20T05:20:06.543Z,1.50
2022-09-20T05:22:43.193Z,1.60
2022-09-20T05:25:39.453Z,2.10
2022-09-20T05:28:44.997Z,1.75
2022-09-20T05:31:16.169Z,1.30
2022-09-20T05:34:03.029Z,1.60
2022-09-20T05:36:57.137Z,1.80
2022-09-20T05:39:50.877Z,1.83
2022-09-20T05:42:25.148Z,1.70
2022-09-20T05:44:59.250Z,1.65
2022-09-20T05:47:47.744Z,1.62
2022-09-20T05:50:39.114Z,1.70
2022-09-20T05:53:27.120Z,2.20
2022-09-20T05:56:19.271Z,1.98
2022-09-20T05:59:31.280Z,1.58
2022-09-20T06:02:01.551Z,2.22
2022-09-20T06:04:38.992Z,1.75
2022-09-20T06:07:33.635Z,1.87
2022-09-20T06:10:25.722Z,1.90
2022-09-20T06:13:25.436Z,1.60
2022-09-20T06:16:00.062Z,1.70
2022-09-20T06:18:27.987Z,1.90
2022-09-20T06:21:24.719Z,2.30
2022-09-20T06:23:58.252Z,2.12
2022-09-20T06:26:30.567Z,1.60
2022-09-20T06:29:04.155Z,1.92
2022-09-20T06:31:31.909Z,1.48
2022-09-20T06:34:04.673Z,1.90
2022-09-20T06:36:53.681Z,1.55
2022-09-20T06:40:04.933Z,2.12
2022-09-20T06:42:32.637Z,2.25
2022-09-20T06:45:00.221Z,1.40
2022-09-20T06:47:28.123Z,1.75
2022-09-20T06:49:56.612Z,2.00
2022-09-20T06:52:24.298Z,1.70
2022-09-20T06:54:54.987Z,1.98
2022-09-20T06:57:35.866Z,2.20
2022-09-20T07:00:03.645Z,1.98
2022-09-20T07:02:31.246Z,2.05
2022-09-20T07:05:00.377Z,1.87
2022-09-20T07:07:28.121Z,1.75
2022-09-20T07:09:55.766Z,2.17
2022-09-20T07:12:23.394Z,1.90
2022-09-20T07:14:51.670Z,2.00
2022-09-20T07:17:19.253Z,2.05
2022-09-20T07:19:46.913Z,2.53
2022-09-20T07:22:15.604Z,2.17
2022-09-20T07:24:43.275Z,2.20
2022-09-20T07:27:12.910Z,2.30
2022-09-20T07:29:42.189Z,2.20
2022-09-20T07:32:09.886Z,1.70
2022-09-20T07:34:37.482Z,2.15
2022-09-20T07:37:05.216Z,2.08
2022-09-20T07:39:32.899Z,1.92
2022-09-20T07:42:00.517Z,2.70
2022-09-20T07:44:29.058Z,2.37
2022-09-20T07:47:01.954Z,2.40
2022-09-20T07:49:33.498Z,2.25
2022-09-20T07:52:01.111Z,2.08
2022-09-20T07:54:29.337Z,2.00
2022-09-20T07:56:57.406Z,2.20
2022-09-20T07:59:25.472Z,1.90
2022-09-20T08:01:53.180Z,1.62
2022-09-20T08:04:20.873Z,2.20
2022-09-20T08:06:48.522Z,2.05
2022-09-20T08:09:16.342Z,2.78
2022-09-20T08:11:44.833Z,1.87
2022-09-20T08:14:17.071Z,1.87
2022-09-20T08:16:48.273Z,1.80
2022-09-20T08:19:24.179Z,2.12
2022-09-20T08:21:55.047Z,1.98
2022-09-20T08:24:22.962Z,1.55
2022-09-20T08:26:50.574Z,1.70
2022-09-20T08:29:18.927Z,2.12
2022-09-20T08:31:47.533Z,1.65
2022-09-20T08:34:18.083Z,1.73
2022-09-20T08:36:48.087Z,1.80
2022-09-20T08:42:21.090Z,1.55
2022-09-20T08:45:01.166Z,2.05
2022-09-20T08:47:45.682Z,1.67
2022-09-20T08:50:18.140Z,1.35
2022-09-20T08:52:49.559Z,1.45
2022-09-20T08:55:37.068Z,1.33
2022-09-20T08:58:08.750Z,1.73
2022-09-20T09:00:38.240Z,1.87
2022-09-20T09:03:11.869Z,1.95
2022-09-20T09:05:47.025Z,1.33
2022-09-20T09:08:28.311Z,1.48
2022-09-20T09:10:59.508Z,1.45
2022-09-20T09:13:54.322Z,2.10
2022-09-20T09:16:31.825Z,1.30
2022-09-20T09:19:33.948Z,1.27
2022-09-20T09:22:04.437Z,1.10
2022-09-20T09:24:32.609Z,1.30
2022-09-20T09:27:17.420Z,1.27
2022-09-20T09:29:55.513Z,1.17
2022-09-20T09:32:29.584Z,1.45
2022-09-20T09:34:58.442Z,1.20
2022-09-20T09:37:30.117Z,1.23
2022-09-20T09:40:27.627Z,1.20
2022-09-20T09:43:01.578Z,1.10
2022-09-20T09:45:39.520Z,1.00
2022-09-20T09:48:28.587Z,1.35
2022-09-20T09:51:12.709Z,1.00
2022-09-20T09:53:40.844Z,1.10
2022-09-20T09:56:14.433Z,1.30
2022-09-20T09:58:51.107Z,1.15
2022-09-20T10:01:33.551Z,1.30
2022-09-20T10:04:24.018Z,1.20
2022-09-20T10:07:06.179Z,1.12
2022-09-20T10:10:10.638Z,1.20
2022-09-20T10:13:05.248Z,1.42
2022-09-20T10:15:35.918Z,1.30
2022-09-20T10:18:25.263Z,1.00
2022-09-20T10:21:45.145Z,1.20
2022-09-20T10:24:32.090Z,1.25
2022-09-20T10:27:27.514Z,1.40
2022-09-20T10:30:18.469Z,1.42
2022-09-20T10:33:16.067Z,1.75
2022-09-20T10:36:08.936Z,1.30
2022-09-20T10:38:36.475Z,1.10
2022-09-20T10:41:41.609Z,1.20
2022-09-20T10:44:19.399Z,1.30
2022-09-20T10:47:14.985Z,1.05
2022-09-20T10:50:06.182Z,1.30
2022-09-20T10:52:50.365Z,1.10
2022-09-20T10:55:42.858Z,1.20
2022-09-20T10:58:29.037Z,1.25
2022-09-20T11:00:56.640Z,1.35
2022-09-20T11:03:38.175Z,1.40
2022-09-20T11:06:23.217Z,1.42
2022-09-20T11:08:56.840Z,1.50
2022-09-20T11:11:36.869Z,1.12
2022-09-20T11:14:12.252Z,1.23
2022-09-20T11:16:55.139Z,1.25
2022-09-20T11:19:32.428Z,1.30
2022-09-20T11:22:03.189Z,1.33
2022-09-20T11:24:39.327Z,1.45
2022-09-20T11:27:15.298Z,1.08
2022-09-20T11:29:51.735Z,1.20
2022-09-20T11:32:26.142Z,1.12
2022-09-20T11:35:03.009Z,1.15
2022-09-20T11:37:45.757Z,1.75
2022-09-20T11:40:26.178Z,1.00
2022-09-20T11:42:55.978Z,1.12
2022-09-20T11:45:28.345Z,1.25
2022-09-20T11:48:03.776Z,1.30
2022-09-20T11:51:13.813Z,1.20
2022-09-20T11:54:17.196Z,1.20
2022-09-20T11:56:57.613Z,1.00
2022-09-20T11:59:57.537Z,1.23
2022-09-20T12:02:36.489Z,1.50
2022-09-20T12:05:08.885Z,1.08
2022-09-20T12:07:40.875Z,1.60
2022-09-20T12:10:21.501Z,1.10
2022-09-20T12:12:55.924Z,1.05
2022-09-20T12:15:42.130Z,1.20
2022-09-20T12:18:34.926Z,1.60
2022-09-20T12:21:17.612Z,1.50
2022-09-20T12:23:58.264Z,1.73
2022-09-20T12:26:28.799Z,1.58
2022-09-20T12:28:59.896Z,1.27
2022-09-20T12:31:30.181Z,1.20
2022-09-20T12:34:00.271Z,1.85
2022-09-20T12:36:35.325Z,1.20
2022-09-20T12:39:07.795Z,1.30
2022-09-20T12:41:58.881Z,1.15
2022-09-20T12:44:32.681Z,1.30
2022-09-20T12:47:11.440Z,1.20
2022-09-20T12:50:07.056Z,0.90
2022-09-20T12:52:56.942Z,1.45
2022-09-20T12:55:31.091Z,1.15
2022-09-20T12:58:07.723Z,1.00
2022-09-20T13:00:49.024Z,0.85
2022-09-20T13:03:16.576Z,1.02
2022-09-20T13:05:49.279Z,1.20
2022-09-20T13:08:21.774Z,1.10
2022-09-20T13:10:59.233Z,1.00
2022-09-20T13:13:33.370Z,1.00
2022-09-20T13:16:03.108Z,1.17
2022-09-20T13:18:31.337Z,1.10
2022-09-20T13:21:07.452Z,1.27
2022-09-20T13:23:46.665Z,1.08
2022-09-20T13:26:16.585Z,1.02
2022-09-20T13:28:50.747Z,1.08
2022-09-20T13:31:21.357Z,1.12
2022-09-20T13:33:49.677Z,1.10
2022-09-20T13:36:29.307Z,0.90
2022-09-20T13:38:59.061Z,0.80
2022-09-20T13:41:30.318Z,0.93
2022-09-20T13:43:58.521Z,0.90
2022-09-20T13:46:35.304Z,1.00
2022-09-20T13:49:12.399Z,1.30
2022-09-20T13:51:40.096Z,1.20
2022-09-20T13:54:31.129Z,1.08
2022-09-20T13:57:04.438Z,1.10
2022-09-20T13:59:41.717Z,0.90
2022-09-20T14:02:30.686Z,0.80
2022-09-20T14:05:01.546Z,1.08
2022-09-20T14:07:30.703Z,0.85
2022-09-20T14:09:59.960Z,0.90
2022-09-20T14:12:28.534Z,0.98
2022-09-20T14:14:56.942Z,1.33
2022-09-20T14:17:25.830Z,1.00
2022-09-20T14:19:55.769Z,1.05
2022-09-20T14:22:30.673Z,1.05
2022-09-20T14:25:22.577Z,1.20
2022-09-20T14:28:05.003Z,1.10
2022-09-20T14:30:37.540Z,0.90
2022-09-20T14:33:08.337Z,1.00
2022-09-20T14:35:36.094Z,0.90
2022-09-20T14:38:09.643Z,1.60
2022-09-20T14:40:47.087Z,1.20
2022-09-20T14:43:27.070Z,1.40
2022-09-20T14:45:58.316Z,1.12
2022-09-20T14:48:25.948Z,0.93
2022-09-20T14:51:28.740Z,1.42
2022-09-20T14:54:05.354Z,1.20
2022-09-20T14:56:38.893Z,1.10
2022-09-20T14:59:10.396Z,1.10
2022-09-20T15:01:42.415Z,1.10
2022-09-20T15:04:18.788Z,1.20
2022-09-20T15:06:46.506Z,1.10
2022-09-20T15:09:14.675Z,1.10
2022-09-20T15:11:42.428Z,1.02
2022-09-20T15:14:10.056Z,1.33
2022-09-20T15:16:37.979Z,1.45
2022-09-20T15:19:07.136Z,1.37
2022-09-20T15:21:34.881Z,1.62
2022-09-20T15:24:02.745Z,1.45
2022-09-20T15:26:32.578Z,1.30
2022-09-20T15:29:01.183Z,1.17
2022-09-20T15:31:29.869Z,1.15
2022-09-20T15:33:57.508Z,1.10
2022-09-20T15:36:25.096Z,1.20
2022-09-20T15:38:54.922Z,1.20
2022-09-20T15:41:22.604Z,0.90
2022-09-20T15:43:51.378Z,1.10
2022-09-20T15:46:23.980Z,1.20
2022-09-20T15:48:51.664Z,1.00
2022-09-20T15:51:19.262Z,1.00
2022-09-20T15:53:50.534Z,0.90
2022-09-20T15:56:23.603Z,1.00
2022-09-20T15:58:53.380Z,0.90
2022-09-20T16:01:21.074Z,1.30
2022-09-20T16:03:50.098Z,1.48
2022-09-20T16:06:17.908Z,1.40
2022-09-20T16:08:45.658Z,0.90
2022-09-20T16:11:22.415Z,0.90
2022-09-20T16:13:55.281Z,1.05
2022-09-20T16:16:23.494Z,0.90
2022-09-20T16:19:10.081Z,1.40
2022-09-20T16:21:40.598Z,1.15
2022-09-20T16:24:09.226Z,1.00
2022-09-20T16:26:37.684Z,0.95
2022-09-20T16:29:06.160Z,1.12
2022-09-20T16:31:43.001Z,0.93
2022-09-20T16:34:22.612Z,1.10
2022-09-20T16:36:52.559Z,1.23
2022-09-20T16:39:21.774Z,1.00
2022-09-20T16:41:49.954Z,1.00
2022-09-20T16:44:17.643Z,1.25
2022-09-20T16:46:46.340Z,1.23
2022-09-20T16:49:14.617Z,1.17
2022-09-20T16:51:43.990Z,1.00
2022-09-20T16:54:14.343Z,1.30
2022-09-20T16:56:47.470Z,0.85
2022-09-20T16:59:16.997Z,0.95
2022-09-20T17:01:45.851Z,0.90
2022-09-20T17:04:15.352Z,1.10
2022-09-20T17:06:44.514Z,1.10
2022-09-20T17:09:13.315Z,1.30
2022-09-20T17:11:47.037Z,1.58
2022-09-20T17:14:16.033Z,1.23
2022-09-20T17:16:44.701Z,1.50
2022-09-20T17:19:14.277Z,1.58
2022-09-20T17:21:44.842Z,1.50
2022-09-20T17:24:13.208Z,1.48
2022-09-20T17:26:43.087Z,1.42
2022-09-20T17:29:11.911Z,1.60
2022-09-20T17:31:43.119Z,1.40
2022-09-20T17:34:12.728Z,1.58
2022-09-20T17:36:43.442Z,1.30
2022-09-20T17:39:13.346Z,1.87
2022-09-20T17:41:42.869Z,1.40
2022-09-20T17:44:11.207Z,1.67
2022-09-20T17:46:41.117Z,1.95
2022-09-20T17:49:11.320Z,1.45
2022-09-20T17:51:41.233Z,1.50
2022-09-20T17:54:09.599Z,1.10
2022-09-20T17:56:37.384Z,1.20
2022-09-20T17:59:06.754Z,1.20
2022-09-20T18:01:36.485Z,1.25
2022-09-20T18:04:05.700Z,1.27
2022-09-20T18:06:43.293Z,2.03
2022-09-20T18:09:13.102Z,2.35
2022-09-20T18:11:50.516Z,1.58
2022-09-20T18:14:21.610Z,1.77
2022-09-20T18:16:49.224Z,1.30
2022-09-20T18:19:17.715Z,1.75
2022-09-20T18:21:45.348Z,1.45
2022-09-20T18:24:13.194Z,1.40
2022-09-20T18:26:41.483Z,1.27
2022-09-20T18:29:14.387Z,1.52
2022-09-20T18:31:47.770Z,1.60
2022-09-20T18:34:18.919Z,1.58
2022-09-20T18:36:53.934Z,1.70
2022-09-20T18:39:23.181Z,2.10
2022-09-20T18:41:51.813Z,1.92
2022-09-20T18:44:20.212Z,2.15
2022-09-20T18:46:48.268Z,2.28
2022-09-20T18:49:17.876Z,1.90
2022-09-20T18:51:46.614Z,1.92
2022-09-20T18:54:14.298Z,1.80
2022-09-20T18:56:43.897Z,1.95
2022-09-20T18:59:23.586Z,1.90
2022-09-20T19:02:06.949Z,1.60
2022-09-20T19:05:07.890Z,2.00
2022-09-20T19:07:40.889Z,2.50
2022-09-20T19:10:08.468Z,2.10
2022-09-20T19:12:58.138Z,2.62
2022-09-20T19:15:44.511Z,2.20
2022-09-20T19:18:39.957Z,1.80
2022-09-20T19:21:19.407Z,2.55
2022-09-20T19:23:53.043Z,1.87
2022-09-20T19:26:22.964Z,2.00
2022-09-20T19:28:56.349Z,1.90
2022-09-20T19:31:30.330Z,2.20
2022-09-20T19:34:00.502Z,1.90
2022-09-20T19:36:46.029Z,1.87
2022-09-20T19:39:40.889Z,1.83
2022-09-20T19:42:25.663Z,1.52
2022-09-20T19:45:20.177Z,1.60
2022-09-20T19:48:17.826Z,1.75
2022-09-20T19:50:49.642Z,1.42
2022-09-20T19:53:19.715Z,1.65
2022-09-20T19:55:51.154Z,2.20
2022-09-20T19:58:19.172Z,2.42
2022-09-20T20:00:48.468Z,2.30
2022-09-20T20:03:17.028Z,2.22
2022-09-20T20:05:58.328Z,2.20
2022-09-20T20:08:38.656Z,2.50
2022-09-20T20:11:24.718Z,2.42
2022-09-20T20:14:31.892Z,2.15
2022-09-20T20:17:34.478Z,2.22
2022-09-20T20:20:27.536Z,2.47
2022-09-20T20:23:20.686Z,1.62
2022-09-20T20:25:48.575Z,1.85
2022-09-20T20:28:16.287Z,1.87
2022-09-20T20:30:44.141Z,1.90
2022-09-20T20:33:16.556Z,2.12
2022-09-20T20:35:44.171Z,2.25
2022-09-20T20:38:12.840Z,2.22
2022-09-20T20:40:42.639Z,1.80
2022-09-20T20:43:10.827Z,2.25
2022-09-20T20:45:39.836Z,1.73
2022-09-20T20:48:07.672Z,1.62
2022-09-20T20:50:36.457Z,1.75
2022-09-20T20:53:04.173Z,1.65
2022-09-20T20:55:32.370Z,1.35
2022-09-20T20:58:00.737Z,1.77
2022-09-20T21:00:29.052Z,1.55
2022-09-20T21:03:02.487Z,1.85
2022-09-20T21:05:30.658Z,1.90
2022-09-20T21:07:59.643Z,2.00
2022-09-20T21:10:27.278Z,1.90
2022-09-20T21:12:55.577Z,2.20
2022-09-20T21:15:23.328Z,2.03
2022-09-20T21:17:52.577Z,2.25
2022-09-20T21:20:21.260Z,2.45
2022-09-20T21:22:48.934Z,2.25
2022-09-20T21:25:16.657Z,1.83
2022-09-20T21:27:44.269Z,1.42
2022-09-20T21:30:12.917Z,1.33
2022-09-20T21:32:40.565Z,1.70
2022-09-20T21:35:08.549Z,1.20
2022-09-20T21:37:36.258Z,1.50
2022-09-20T21:40:03.988Z,1.58
2022-09-20T21:42:31.612Z,1.87
2022-09-20T21:44:59.293Z,1.80
2022-09-20T21:47:27.260Z,2.10
2022-09-20T21:49:54.927Z,1.62
2022-09-20T21:52:22.702Z,1.60
2022-09-20T21:54:50.774Z,1.50
2022-09-20T21:57:18.949Z,1.23
2022-09-20T21:59:46.566Z,1.30
2022-09-20T22:02:14.276Z,1.85
2022-09-20T22:04:41.869Z,1.27
2022-09-20T22:07:10.197Z,1.55
2022-09-20T22:09:37.845Z,1.62
2022-09-20T22:12:05.545Z,1.40
2022-09-20T22:14:33.219Z,1.35
2022-09-20T22:17:01.356Z,1.73
2022-09-20T22:19:29.062Z,1.70
2022-09-20T22:21:56.722Z,1.62
2022-09-20T22:24:24.947Z,1.85
2022-09-20T22:26:52.774Z,1.83
2022-09-20T22:29:21.102Z,1.45
2022-09-20T22:31:51.098Z,1.62
2022-09-20T22:34:21.221Z,1.50
2022-09-20T22:36:49.152Z,1.52
2022-09-20T22:39:17.412Z,1.48
2022-09-20T22:41:45.624Z,1.70
2022-09-20T22:44:13.242Z,1.35
2022-09-20T22:46:41.134Z,1.40
2022-09-20T22:49:10.319Z,1.20
2022-09-20T22:51:38.655Z,1.73
2022-09-20T22:54:08.649Z,1.27
2022-09-20T22:56:37.388Z,1.50
2022-09-20T22:59:07.681Z,1.50
2022-09-20T23:01:42.564Z,1.25
2022-09-20T23:04:15.839Z,1.80
2022-09-20T23:06:48.138Z,1.67
2022-09-20T23:09:18.859Z,1.40
2022-09-20T23:11:47.271Z,1.77
2022-09-20T23:14:20.034Z,1.50
2022-09-20T23:16:48.597Z,1.10
2022-09-20T23:19:16.403Z,1.75
2022-09-20T23:21:45.076Z,1.62
2022-09-20T23:24:14.962Z,1.70
2022-09-20T23:26:44.033Z,1.55
2022-09-20T23:29:16.912Z,1.50
2022-09-20T23:31:47.103Z,1.58
2022-09-20T23:34:16.147Z,1.50
2022-09-20T23:36:44.685Z,1.30
2022-09-20T23:39:13.337Z,1.30
2022-09-20T23:41:43.992Z,1.30
2022-09-20T23:44:14.994Z,1.50
2022-09-20T23:46:42.621Z,1.40
2022-09-20T23:49:10.453Z,1.65
2022-09-20T23:51:38.506Z,1.50
2022-09-20T23:54:06.731Z,1.40
2022-09-20T23:56:34.824Z,1.62
2022-09-20T23:59:02.494Z,1.40
